Burns Harbor, Indiana
Current Conditions -  °F | °C
As of 6:56 AM on Wednesday 26 Nov 2014 (Local Time) from KVPZ Reporting Station
Overcast Overcast  
Wind Chill: 13°   Ceiling: 1100
Heat Index: 23°   Visibility: 10mi
Dew Point: 18°   Wind: 9mph
Humidity: 81%   Direction: 80°E
Pressure: 30.17"   Gusts: NA
Location:  41.6139°N, 87.0454°W
Report Text: KVPZ 261256Z AUTO 08008KT 10SM OVC011 M05/M08 A3017 RMK AO2 SLP228 T10501078 TSNO
Loading
Personal Weather Stations






























Interactive Weather Map New forecast layout! Learn more

10-Day Weather Forecast

Advertisements
Track Severe Weather on mobile